createdAt,value
2023-05-04T00:01:13.361Z,1.80
2023-05-04T00:03:15.041Z,1.20
2023-05-04T00:05:16.667Z,1.50
2023-05-04T00:07:18.476Z,1.42
2023-05-04T00:09:19.905Z,1.42
2023-05-04T00:11:21.885Z,1.30
2023-05-04T00:13:23.857Z,1.60
2023-05-04T00:15:25.388Z,1.55
2023-05-04T00:17:27.072Z,1.55
2023-05-04T00:19:28.526Z,1.50
2023-05-04T00:21:29.940Z,1.20
2023-05-04T00:23:31.406Z,1.35
2023-05-04T00:25:35.827Z,1.42
2023-05-04T00:27:37.474Z,1.63
2023-05-04T00:29:38.923Z,1.40
2023-05-04T00:31:43.744Z,1.50
2023-05-04T00:33:46.026Z,1.77
2023-05-04T00:35:47.745Z,1.67
2023-05-04T00:37:49.162Z,1.70
2023-05-04T00:39:50.976Z,1.58
2023-05-04T00:41:52.904Z,1.60
2023-05-04T00:43:54.394Z,1.73
2023-05-04T00:45:56.134Z,1.58
2023-05-04T00:47:58.990Z,1.95
2023-05-04T00:50:00.526Z,1.60
2023-05-04T00:52:03.542Z,1.40
2023-05-04T00:54:05.248Z,1.58
2023-05-04T00:56:07.683Z,1.63
2023-05-04T00:58:09.309Z,1.42
2023-05-04T01:00:13.212Z,1.65
2023-05-04T01:02:14.714Z,1.70
2023-05-04T01:04:16.604Z,1.40
2023-05-04T01:06:47.253Z,1.40
2023-05-04T01:09:02.673Z,1.48
2023-05-04T01:11:11.034Z,1.45
2023-05-04T01:13:15.013Z,1.40
2023-05-04T01:15:17.920Z,1.40
2023-05-04T01:17:19.641Z,1.90
2023-05-04T01:19:21.958Z,1.25
2023-05-04T01:21:23.487Z,1.50
2023-05-04T01:23:26.267Z,1.70
2023-05-04T01:25:33.698Z,1.30
2023-05-04T01:27:42.889Z,1.42
2023-05-04T01:30:11.198Z,1.60
2023-05-04T01:32:15.050Z,1.63
2023-05-04T01:34:17.171Z,1.70
2023-05-04T01:36:20.529Z,1.60
2023-05-04T01:38:22.109Z,1.50
2023-05-04T01:40:23.653Z,1.50
2023-05-04T01:42:25.153Z,1.50
2023-05-04T01:44:28.653Z,1.70
2023-05-04T01:46:30.637Z,1.60
2023-05-04T01:48:32.238Z,1.70
2023-05-04T01:50:33.654Z,1.48
2023-05-04T01:52:37.226Z,1.77
2023-05-04T01:54:39.957Z,1.40
2023-05-04T01:56:42.087Z,1.50
2023-05-04T01:58:43.534Z,1.40
2023-05-04T02:00:46.249Z,1.60
2023-05-04T02:02:47.980Z,1.50
2023-05-04T02:04:53.086Z,1.33
2023-05-04T02:06:54.856Z,1.45
2023-05-04T02:08:56.576Z,1.65
2023-05-04T02:10:58.197Z,1.50
2023-05-04T02:13:01.084Z,1.50
2023-05-04T02:15:02.835Z,1.55
2023-05-04T02:17:06.819Z,1.60
2023-05-04T02:19:08.298Z,1.65
2023-05-04T02:21:10.127Z,1.52
2023-05-04T02:23:11.685Z,1.48
2023-05-04T02:25:13.132Z,1.40
2023-05-04T02:27:14.661Z,1.80
2023-05-04T02:29:16.328Z,1.50
2023-05-04T02:31:20.087Z,1.40
2023-05-04T02:33:21.772Z,1.70
2023-05-04T02:35:23.235Z,1.50
2023-05-04T02:37:24.774Z,1.40
2023-05-04T02:39:26.324Z,1.33
2023-05-04T02:41:29.220Z,1.83
2023-05-04T02:43:30.757Z,1.50
2023-05-04T02:45:37.830Z,1.60
2023-05-04T02:47:42.348Z,1.48
2023-05-04T02:49:46.408Z,1.77
2023-05-04T02:51:47.838Z,1.52
2023-05-04T02:53:49.322Z,1.80
2023-05-04T02:55:51.029Z,1.88
2023-05-04T02:57:52.634Z,1.50
2023-05-04T02:59:56.671Z,1.55
2023-05-04T03:01:58.486Z,1.70
2023-05-04T03:04:00.151Z,1.50
2023-05-04T03:06:03.507Z,1.70
2023-05-04T03:08:05.123Z,1.50
2023-05-04T03:10:09.201Z,1.73
2023-05-04T03:12:10.763Z,1.42
2023-05-04T03:14:12.320Z,1.60
2023-05-04T03:16:14.161Z,1.65
2023-05-04T03:18:15.740Z,1.55
2023-05-04T03:20:18.068Z,1.75
2023-05-04T03:22:19.607Z,1.88
2023-05-04T03:24:22.077Z,1.40
2023-05-04T03:26:35.927Z,1.60
2023-05-04T03:28:37.701Z,1.50
2023-05-04T03:30:39.430Z,1.65
2023-05-04T03:32:41.133Z,1.40
2023-05-04T03:34:42.741Z,1.50
2023-05-04T03:36:45.052Z,1.80
2023-05-04T03:38:46.713Z,1.40
2023-05-04T03:40:48.482Z,1.70
2023-05-04T03:42:52.336Z,1.30
2023-05-04T03:44:54.011Z,1.63
2023-05-04T03:46:55.617Z,1.45
2023-05-04T03:48:57.704Z,1.55
2023-05-04T03:50:59.576Z,1.40
2023-05-04T03:53:04.071Z,1.42
2023-05-04T03:55:07.108Z,1.70
2023-05-04T03:57:08.836Z,1.77
2023-05-04T03:59:11.549Z,1.60
2023-05-04T04:01:13.253Z,1.77
2023-05-04T04:03:14.833Z,1.70
2023-05-04T04:05:16.769Z,1.67
2023-05-04T04:07:18.722Z,1.67
2023-05-04T04:09:20.293Z,1.63
2023-05-04T04:11:21.832Z,1.70
2023-05-04T04:13:23.992Z,1.90
2023-05-04T04:15:26.698Z,1.88
2023-05-04T04:17:28.327Z,1.60
2023-05-04T04:19:29.889Z,1.50
2023-05-04T04:21:31.537Z,1.63
2023-05-04T04:23:34.588Z,1.90
2023-05-04T04:25:39.065Z,1.80
2023-05-04T04:27:41.383Z,1.70
2023-05-04T04:29:42.935Z,1.70
2023-05-04T04:31:47.310Z,1.90
2023-05-04T04:33:50.446Z,1.90
2023-05-04T04:35:53.110Z,1.73
2023-05-04T04:37:54.898Z,1.60
2023-05-04T04:39:56.424Z,1.90
2023-05-04T04:41:57.979Z,1.80
2023-05-04T04:44:00.351Z,1.75
2023-05-04T04:46:02.242Z,1.80
2023-05-04T04:48:09.135Z,1.55
2023-05-04T04:50:16.480Z,1.90
2023-05-04T04:52:24.810Z,1.90
2023-05-04T04:54:29.268Z,1.70
2023-05-04T04:56:30.739Z,2.00
2023-05-04T04:58:33.931Z,1.65
2023-05-04T05:00:35.994Z,1.90
2023-05-04T05:02:37.743Z,1.90
2023-05-04T05:04:40.533Z,2.35
2023-05-04T05:06:45.215Z,2.13
2023-05-04T05:08:46.987Z,2.05
2023-05-04T05:10:48.502Z,1.98
2023-05-04T05:12:52.963Z,1.60
2023-05-04T05:14:54.917Z,1.75
2023-05-04T05:16:56.408Z,2.42
2023-05-04T05:19:00.238Z,1.90
2023-05-04T05:21:01.936Z,1.98
2023-05-04T05:23:03.447Z,2.40
2023-05-04T05:25:06.438Z,2.25
2023-05-04T05:27:08.275Z,2.17
2023-05-04T05:29:09.738Z,2.50
2023-05-04T05:31:11.581Z,2.40
2023-05-04T05:33:13.820Z,2.15
2023-05-04T05:35:15.357Z,2.85
2023-05-04T05:37:17.101Z,2.20
2023-05-04T05:39:18.773Z,2.50
2023-05-04T05:41:21.199Z,2.00
2023-05-04T05:43:22.793Z,2.10
2023-05-04T05:45:24.500Z,2.33
2023-05-04T05:47:25.980Z,2.30
2023-05-04T05:49:27.522Z,2.30
2023-05-04T05:51:29.526Z,2.25
2023-05-04T05:53:31.031Z,2.17
2023-05-04T05:55:32.606Z,2.20
2023-05-04T05:57:34.168Z,2.50
2023-05-04T05:59:35.702Z,2.50
2023-05-04T06:01:37.194Z,2.00
2023-05-04T06:03:38.940Z,2.40
2023-05-04T06:05:40.605Z,1.75
2023-05-04T06:07:42.195Z,2.20
2023-05-04T06:09:43.770Z,2.00
2023-05-04T06:11:45.638Z,2.30
2023-05-04T06:13:47.254Z,2.40
2023-05-04T06:15:52.769Z,2.17
2023-05-04T06:17:54.349Z,2.63
2023-05-04T06:19:55.990Z,1.80
2023-05-04T06:21:57.887Z,2.10
2023-05-04T06:23:59.421Z,2.38
2023-05-04T06:26:01.120Z,2.35
2023-05-04T06:28:03.827Z,1.80
2023-05-04T06:30:06.705Z,2.42
2023-05-04T06:32:09.941Z,2.20
2023-05-04T06:34:17.181Z,2.30
2023-05-04T06:36:20.163Z,1.95
2023-05-04T06:38:22.161Z,2.22
2023-05-04T06:40:26.840Z,2.22
2023-05-04T06:42:38.564Z,2.30
2023-05-04T06:44:40.034Z,2.30
2023-05-04T06:46:41.496Z,2.42
2023-05-04T06:48:43.103Z,2.15
2023-05-04T06:50:48.348Z,1.95
2023-05-04T06:52:49.973Z,1.90
2023-05-04T06:54:51.722Z,2.22
2023-05-04T06:56:53.531Z,2.08
2023-05-04T06:58:55.189Z,2.10
2023-05-04T07:00:56.771Z,1.75
2023-05-04T07:02:58.514Z,2.00
2023-05-04T07:05:00.743Z,1.77
2023-05-04T07:07:02.309Z,2.10
2023-05-04T07:09:04.127Z,2.05
2023-05-04T07:11:05.789Z,2.25
2023-05-04T07:13:08.097Z,2.25
2023-05-04T07:15:10.521Z,2.28
2023-05-04T07:17:12.302Z,2.20
2023-05-04T07:19:14.445Z,2.60
2023-05-04T07:21:27.831Z,2.20
2023-05-04T07:23:33.463Z,2.40
2023-05-04T07:25:35.227Z,2.38
2023-05-04T07:27:36.798Z,2.40
2023-05-04T07:29:38.265Z,2.80
2023-05-04T07:31:41.418Z,2.65
2023-05-04T07:33:43.478Z,2.13
2023-05-04T07:35:45.115Z,2.72
2023-05-04T07:37:46.716Z,2.50
2023-05-04T07:39:48.370Z,2.22
2023-05-04T07:41:53.772Z,2.00
2023-05-04T07:43:55.227Z,2.25
2023-05-04T07:45:56.869Z,1.92
2023-05-04T07:47:58.481Z,2.20
2023-05-04T07:49:59.947Z,1.98
2023-05-04T07:52:01.721Z,2.10
2023-05-04T07:54:03.360Z,2.20
2023-05-04T07:56:12.764Z,2.10
2023-05-04T07:58:15.436Z,2.10
2023-05-04T08:00:17.702Z,1.98
2023-05-04T08:02:19.677Z,2.10
2023-05-04T08:04:21.296Z,2.20
2023-05-04T08:06:22.750Z,2.17
2023-05-04T08:08:24.895Z,1.85
2023-05-04T08:10:27.403Z,1.95
2023-05-04T08:12:29.087Z,1.83
2023-05-04T08:14:30.778Z,2.30
2023-05-04T08:16:32.690Z,2.10
2023-05-04T08:18:34.329Z,2.20
2023-05-04T08:20:35.983Z,2.03
2023-05-04T08:22:38.600Z,2.30
2023-05-04T08:24:40.107Z,1.83
2023-05-04T08:26:43.744Z,2.38
2023-05-04T08:28:47.100Z,2.10
2023-05-04T08:30:49.230Z,1.70
2023-05-04T08:32:54.980Z,2.13
2023-05-04T08:34:56.523Z,2.15
2023-05-04T08:36:58.205Z,2.05
2023-05-04T08:39:02.027Z,2.30
2023-05-04T08:41:04.655Z,2.00
2023-05-04T08:43:06.480Z,1.83
2023-05-04T08:45:08.532Z,2.47
2023-05-04T08:47:10.227Z,2.25
2023-05-04T08:49:11.797Z,2.35
2023-05-04T08:51:14.513Z,2.20
2023-05-04T08:53:19.068Z,2.47
2023-05-04T08:55:20.979Z,2.47
2023-05-04T08:57:26.298Z,2.67
2023-05-04T08:59:29.244Z,2.38
2023-05-04T09:01:32.659Z,2.65
2023-05-04T09:03:34.928Z,2.35
2023-05-04T09:05:40.759Z,2.42
2023-05-04T09:07:42.464Z,2.60
2023-05-04T09:09:44.613Z,2.63
2023-05-04T09:11:46.702Z,3.75
2023-05-04T09:13:48.255Z,3.67
2023-05-04T09:15:56.033Z,4.43
2023-05-04T09:18:02.092Z,5.00
2023-05-04T09:20:04.757Z,5.50
2023-05-04T09:22:17.161Z,5.97
2023-05-04T09:24:29.352Z,5.82
2023-05-04T09:26:32.885Z,6.30
2023-05-04T09:28:36.764Z,6.45
2023-05-04T09:30:38.398Z,5.85
2023-05-04T09:32:47.200Z,5.50
2023-05-04T09:34:53.012Z,5.45
2023-05-04T09:36:59.317Z,5.10
2023-05-04T09:39:11.499Z,5.25
2023-05-04T09:41:13.267Z,5.13
2023-05-04T09:43:15.356Z,5.18
2023-05-04T09:45:16.860Z,5.35
2023-05-04T09:47:18.576Z,6.72
2023-05-04T09:49:30.324Z,6.53
2023-05-04T09:51:32.032Z,6.03
2023-05-04T09:53:38.350Z,5.13
2023-05-04T09:55:45.163Z,4.85
2023-05-04T09:57:48.577Z,4.85
2023-05-04T09:59:52.469Z,5.13
2023-05-04T10:01:54.211Z,4.50
2023-05-04T10:03:56.217Z,4.85
2023-05-04T10:06:04.205Z,4.82
2023-05-04T10:08:06.635Z,4.80
2023-05-04T10:10:09.626Z,5.15
2023-05-04T10:12:12.032Z,5.03
2023-05-04T10:14:13.969Z,5.80
2023-05-04T10:16:31.784Z,5.03
2023-05-04T10:18:50.698Z,4.30
2023-05-04T10:21:28.376Z,4.18
2023-05-04T10:24:00.174Z,4.25
2023-05-04T10:26:25.818Z,4.00
2023-05-04T10:28:43.176Z,3.95
2023-05-04T10:30:45.219Z,4.18
2023-05-04T10:32:55.725Z,4.28
2023-05-04T10:35:08.330Z,4.35
2023-05-04T10:37:17.236Z,4.03
2023-05-04T10:39:22.622Z,4.05
2023-05-04T10:41:24.382Z,3.65
2023-05-04T10:43:26.827Z,3.67
2023-05-04T10:45:38.522Z,3.90
2023-05-04T10:47:41.552Z,3.90
2023-05-04T10:49:43.147Z,3.95
2023-05-04T10:51:49.449Z,3.90
2023-05-04T10:53:52.115Z,3.80
2023-05-04T10:55:54.405Z,3.88
2023-05-04T10:57:57.917Z,3.67
2023-05-04T10:59:59.782Z,3.80
2023-05-04T11:02:03.230Z,3.60
2023-05-04T11:04:04.999Z,3.40
2023-05-04T11:06:27.530Z,3.20
2023-05-04T11:08:30.489Z,3.28
2023-05-04T11:10:32.188Z,3.15
2023-05-04T11:12:34.442Z,3.20
2023-05-04T11:14:42.787Z,2.90
2023-05-04T11:16:44.958Z,3.53
2023-05-04T11:18:46.717Z,3.22
2023-05-04T11:20:48.165Z,2.90
2023-05-04T11:22:51.026Z,3.35
2023-05-04T11:24:54.254Z,2.67
2023-05-04T11:26:57.162Z,2.78
2023-05-04T11:28:58.710Z,2.88
2023-05-04T11:31:17.443Z,3.03
2023-05-04T11:33:28.181Z,2.90
2023-05-04T11:35:31.886Z,3.20
2023-05-04T11:37:41.354Z,3.17
2023-05-04T11:39:43.321Z,3.08
2023-05-04T11:41:44.860Z,3.10
2023-05-04T11:43:47.208Z,3.08
2023-05-04T11:45:49.260Z,3.58
2023-05-04T11:47:52.341Z,3.03
2023-05-04T11:49:55.690Z,3.20
2023-05-04T11:52:10.314Z,2.80
2023-05-04T11:54:20.141Z,2.90
2023-05-04T11:56:21.953Z,2.90
2023-05-04T11:58:25.685Z,2.45
2023-05-04T12:00:41.929Z,3.00
2023-05-04T12:02:43.626Z,3.20
2023-05-04T12:04:45.471Z,2.58
2023-05-04T12:06:48.980Z,2.67
2023-05-04T12:08:50.645Z,2.22
2023-05-04T12:11:22.183Z,2.53
2023-05-04T12:13:23.798Z,2.63
2023-05-04T12:15:32.985Z,2.28
2023-05-04T12:17:43.902Z,2.53
2023-05-04T12:19:56.652Z,2.40
2023-05-04T12:21:59.051Z,2.35
2023-05-04T12:24:03.353Z,2.25
2023-05-04T12:26:06.100Z,2.38
2023-05-04T12:28:08.023Z,2.20
2023-05-04T12:30:10.980Z,1.90
2023-05-04T12:32:12.718Z,2.35
2023-05-04T12:34:14.223Z,2.25
2023-05-04T12:36:16.233Z,2.13
2023-05-04T12:38:17.998Z,2.40
2023-05-04T12:40:28.359Z,2.25
2023-05-04T12:42:30.549Z,1.92
2023-05-04T12:44:32.377Z,2.00
2023-05-04T12:46:34.016Z,2.10
2023-05-04T12:48:35.634Z,1.90
2023-05-04T12:50:37.501Z,1.90
2023-05-04T12:52:40.929Z,2.20
2023-05-04T12:54:42.522Z,2.03
2023-05-04T12:56:44.013Z,2.55
2023-05-04T12:58:48.467Z,1.92
2023-05-04T13:00:50.226Z,2.05
2023-05-04T13:02:51.950Z,2.20
2023-05-04T13:04:53.720Z,2.45
2023-05-04T13:06:55.249Z,1.85
2023-05-04T13:08:57.708Z,2.30
2023-05-04T13:10:59.238Z,1.90
2023-05-04T13:13:01.006Z,1.75
2023-05-04T13:15:02.473Z,2.00
2023-05-04T13:17:06.876Z,1.63
2023-05-04T13:19:11.206Z,2.08
2023-05-04T13:21:13.022Z,2.10
2023-05-04T13:23:15.178Z,1.80
2023-05-04T13:25:17.366Z,1.95
2023-05-04T13:27:18.844Z,2.05
2023-05-04T13:29:22.385Z,1.95
2023-05-04T13:31:24.372Z,2.00
2023-05-04T13:33:30.200Z,1.77
2023-05-04T13:35:32.202Z,1.73
2023-05-04T13:37:33.910Z,1.80
2023-05-04T13:39:41.934Z,2.00
2023-05-04T13:41:43.395Z,1.80
2023-05-04T13:43:44.936Z,1.85
2023-05-04T13:45:46.503Z,1.75
2023-05-04T13:47:50.494Z,1.65
2023-05-04T13:49:52.237Z,1.70
2023-05-04T13:51:56.597Z,1.80
2023-05-04T13:53:59.507Z,2.08
2023-05-04T13:56:02.745Z,1.65
2023-05-04T13:58:04.591Z,1.92
2023-05-04T14:00:08.405Z,1.63
2023-05-04T14:02:12.989Z,1.70
2023-05-04T14:04:14.693Z,2.03
2023-05-04T14:06:16.845Z,1.77
2023-05-04T14:08:18.445Z,1.67
2023-05-04T14:10:23.061Z,1.83
2023-05-04T14:12:24.738Z,1.70
2023-05-04T14:14:26.275Z,1.70
2023-05-04T14:16:28.098Z,1.60
2023-05-04T14:18:32.101Z,1.80
2023-05-04T14:20:33.726Z,1.50
2023-05-04T14:22:37.911Z,1.42
2023-05-04T14:24:39.721Z,1.60
2023-05-04T14:26:41.302Z,1.45
2023-05-04T14:28:42.804Z,1.33
2023-05-04T14:30:44.386Z,1.55
2023-05-04T14:32:46.274Z,1.70
2023-05-04T14:34:47.842Z,1.50
2023-05-04T14:36:49.894Z,1.52
2023-05-04T14:38:52.610Z,1.70
2023-05-04T14:40:55.379Z,1.85
2023-05-04T14:42:59.640Z,1.55
2023-05-04T14:45:01.384Z,1.65
2023-05-04T14:47:04.812Z,1.40
2023-05-04T14:49:08.309Z,1.77
2023-05-04T14:51:12.486Z,1.75
2023-05-04T14:53:14.431Z,1.80
2023-05-04T14:55:15.945Z,1.58
2023-05-04T14:57:18.258Z,1.60
2023-05-04T14:59:19.872Z,1.65
2023-05-04T15:01:21.404Z,1.63
2023-05-04T15:03:23.224Z,1.50
2023-05-04T15:05:24.747Z,1.60
2023-05-04T15:07:27.432Z,1.73
2023-05-04T15:09:29.017Z,1.50
2023-05-04T15:11:30.913Z,1.52
2023-05-04T15:13:44.593Z,1.65
2023-05-04T15:16:13.241Z,1.70
2023-05-04T15:18:20.948Z,1.42
2023-05-04T15:20:25.218Z,1.73
2023-05-04T15:22:28.281Z,1.30
2023-05-04T15:24:30.060Z,1.73
2023-05-04T15:26:33.566Z,1.50
2023-05-04T15:28:35.031Z,1.50
2023-05-04T15:30:45.297Z,1.52
2023-05-04T15:32:47.369Z,1.35
2023-05-04T15:35:01.170Z,1.58
2023-05-04T15:37:06.568Z,6.47
2023-05-04T15:39:08.653Z,6.50
2023-05-04T15:41:10.553Z,3.70
2023-05-04T15:43:12.378Z,2.75
2023-05-04T15:45:13.901Z,2.42
2023-05-04T15:47:15.949Z,2.50
2023-05-04T15:49:17.639Z,2.03
2023-05-04T15:51:19.300Z,1.65
2023-05-04T15:53:21.225Z,1.85
2023-05-04T15:55:26.195Z,1.73
2023-05-04T15:57:28.132Z,1.75
2023-05-04T15:59:29.606Z,1.70
2023-05-04T16:01:32.328Z,1.73
2023-05-04T16:03:35.152Z,1.92
2023-05-04T16:05:37.091Z,1.73
2023-05-04T16:07:38.682Z,1.60
2023-05-04T16:09:40.597Z,1.80
2023-05-04T16:11:42.590Z,1.75
2023-05-04T16:13:44.217Z,2.10
2023-05-04T16:15:51.030Z,1.88
2023-05-04T16:17:52.708Z,1.80
2023-05-04T16:19:54.385Z,1.85
2023-05-04T16:21:55.837Z,1.67
2023-05-04T16:23:57.824Z,1.80
2023-05-04T16:25:59.517Z,1.75
2023-05-04T16:28:01.576Z,1.63
2023-05-04T16:30:03.226Z,1.63
2023-05-04T16:32:05.063Z,1.70
2023-05-04T16:34:06.564Z,1.73
2023-05-04T16:36:09.804Z,1.55
2023-05-04T16:38:15.855Z,1.60
2023-05-04T16:40:17.845Z,1.98
2023-05-04T16:42:21.490Z,1.98
2023-05-04T16:44:23.893Z,2.05
2023-05-04T16:46:25.553Z,2.00
2023-05-04T16:48:27.190Z,2.00
2023-05-04T16:50:28.997Z,1.77
2023-05-04T16:52:30.456Z,1.80
2023-05-04T16:54:32.094Z,1.80
2023-05-04T16:56:36.565Z,1.80
2023-05-04T16:58:38.310Z,1.90
2023-05-04T17:00:43.005Z,1.70
2023-05-04T17:02:45.435Z,2.00
2023-05-04T17:04:47.181Z,1.65
2023-05-04T17:06:48.792Z,1.73
2023-05-04T17:08:50.342Z,2.03
2023-05-04T17:10:51.892Z,1.65
2023-05-04T17:12:54.764Z,1.70
2023-05-04T17:14:56.904Z,1.60
2023-05-04T17:16:58.356Z,1.98
2023-05-04T17:18:59.926Z,1.70
2023-05-04T17:21:01.464Z,1.70
2023-05-04T17:23:02.990Z,2.00
2023-05-04T17:25:04.793Z,2.05
2023-05-04T17:27:08.713Z,1.90
2023-05-04T17:29:10.478Z,1.80
2023-05-04T17:31:15.422Z,1.73
2023-05-04T17:33:17.139Z,1.52
2023-05-04T17:35:25.222Z,1.55
2023-05-04T17:37:29.689Z,1.33
2023-05-04T17:39:31.714Z,1.60
2023-05-04T17:41:35.909Z,1.33
2023-05-04T17:43:37.910Z,1.58
2023-05-04T17:45:39.408Z,1.65
2023-05-04T17:47:40.893Z,1.50
2023-05-04T17:49:42.478Z,1.60
2023-05-04T17:51:49.526Z,1.50
2023-05-04T17:53:51.076Z,1.20
2023-05-04T17:55:52.504Z,1.83
2023-05-04T17:57:54.331Z,1.15
2023-05-04T17:59:57.681Z,1.40
2023-05-04T18:01:59.301Z,1.25
2023-05-04T18:04:04.040Z,1.30
2023-05-04T18:06:06.240Z,1.33
2023-05-04T18:08:07.889Z,1.48
2023-05-04T18:10:09.788Z,1.17
2023-05-04T18:12:11.351Z,1.30
2023-05-04T18:14:13.140Z,1.35
2023-05-04T18:16:14.772Z,1.20
2023-05-04T18:18:16.645Z,1.23
2023-05-04T18:20:18.482Z,1.30
2023-05-04T18:22:20.052Z,1.02
2023-05-04T18:24:21.789Z,1.27
2023-05-04T18:26:23.298Z,1.40
2023-05-04T18:28:24.891Z,1.35
2023-05-04T18:30:26.635Z,1.23
2023-05-04T18:32:28.235Z,1.20
2023-05-04T18:34:29.719Z,1.35
2023-05-04T18:36:32.536Z,1.50
2023-05-04T18:38:37.686Z,1.40
2023-05-04T18:40:39.217Z,1.30
2023-05-04T18:42:40.761Z,1.27
2023-05-04T18:44:42.445Z,1.10
2023-05-04T18:46:43.927Z,1.23
2023-05-04T18:48:45.772Z,1.60
2023-05-04T18:50:53.959Z,1.75
2023-05-04T18:52:55.603Z,1.90
2023-05-04T18:54:57.378Z,1.58
2023-05-04T18:56:59.262Z,1.60
2023-05-04T18:59:00.847Z,1.65
2023-05-04T19:01:02.900Z,1.40
2023-05-04T19:03:04.738Z,1.65
2023-05-04T19:05:06.356Z,1.13
2023-05-04T19:07:09.771Z,1.33
2023-05-04T19:09:14.439Z,1.40
2023-05-04T19:11:16.070Z,1.40
2023-05-04T19:13:17.804Z,1.35
2023-05-04T19:15:21.303Z,1.20
2023-05-04T19:17:23.041Z,1.40
2023-05-04T19:19:25.934Z,1.17
2023-05-04T19:21:28.335Z,1.00
2023-05-04T19:23:29.850Z,1.00
2023-05-04T19:25:35.055Z,1.20
2023-05-04T19:27:36.819Z,1.20
2023-05-04T19:29:41.183Z,0.90
2023-05-04T19:31:42.905Z,1.20
2023-05-04T19:33:48.811Z,1.20
2023-05-04T19:35:51.059Z,1.40
2023-05-04T19:37:52.658Z,1.02
2023-05-04T19:39:55.512Z,1.50
2023-05-04T19:41:56.923Z,1.30
2023-05-04T19:43:58.500Z,1.13
2023-05-04T19:46:02.346Z,1.02
2023-05-04T19:48:04.730Z,1.00
2023-05-04T19:50:10.880Z,1.10
2023-05-04T19:52:12.505Z,1.33
2023-05-04T19:54:14.530Z,1.23
2023-05-04T19:56:15.934Z,1.00
2023-05-04T19:58:17.379Z,1.20
2023-05-04T20:00:19.591Z,1.10
2023-05-04T20:02:21.567Z,1.40
2023-05-04T20:04:23.156Z,1.50
2023-05-04T20:06:24.792Z,1.10
2023-05-04T20:08:26.914Z,1.30
2023-05-04T20:10:28.434Z,1.10
2023-05-04T20:12:29.995Z,1.23
2023-05-04T20:14:31.655Z,1.10
2023-05-04T20:16:33.675Z,1.10
2023-05-04T20:18:35.176Z,1.30
2023-05-04T20:20:36.899Z,1.13
2023-05-04T20:22:38.436Z,1.20
2023-05-04T20:24:40.822Z,1.40
2023-05-04T20:26:42.431Z,1.30
2023-05-04T20:28:43.964Z,1.20
2023-05-04T20:30:48.215Z,1.10
2023-05-04T20:32:49.811Z,1.10
2023-05-04T20:34:51.317Z,1.02
2023-05-04T20:36:52.991Z,1.40
2023-05-04T20:38:55.364Z,1.17
2023-05-04T20:40:57.205Z,1.77
2023-05-04T20:43:00.254Z,1.40
2023-05-04T20:45:01.824Z,1.00
2023-05-04T20:47:07.272Z,1.15
2023-05-04T20:49:09.171Z,1.30
2023-05-04T20:51:14.714Z,1.52
2023-05-04T20:53:17.066Z,1.40
2023-05-04T20:55:18.696Z,1.33
2023-05-04T20:57:20.289Z,1.30
2023-05-04T20:59:21.960Z,1.10
2023-05-04T21:01:23.527Z,1.55
2023-05-04T21:03:25.130Z,1.10
2023-05-04T21:05:26.871Z,1.30
2023-05-04T21:07:28.368Z,1.30
2023-05-04T21:09:30.006Z,1.30
2023-05-04T21:11:31.430Z,1.17
2023-05-04T21:13:32.999Z,1.23
2023-05-04T21:15:34.484Z,1.42
2023-05-04T21:17:36.099Z,1.50
2023-05-04T21:19:37.892Z,1.25
2023-05-04T21:21:41.522Z,1.27
2023-05-04T21:23:43.156Z,1.40
2023-05-04T21:25:44.658Z,1.27
2023-05-04T21:27:46.309Z,1.65
2023-05-04T21:29:47.904Z,1.25
2023-05-04T21:31:49.499Z,1.30
2023-05-04T21:33:51.196Z,1.30
2023-05-04T21:35:53.151Z,1.20
2023-05-04T21:37:54.918Z,1.13
2023-05-04T21:39:56.582Z,1.30
2023-05-04T21:41:58.306Z,1.20
2023-05-04T21:43:59.861Z,1.40
2023-05-04T21:46:01.373Z,1.20
2023-05-04T21:48:03.823Z,1.10
2023-05-04T21:50:06.149Z,1.10
2023-05-04T21:52:10.726Z,1.30
2023-05-04T21:54:12.246Z,1.10
2023-05-04T21:56:14.282Z,1.20
2023-05-04T21:58:17.165Z,1.20
2023-05-04T22:00:19.072Z,1.00
2023-05-04T22:02:20.624Z,1.30
2023-05-04T22:04:22.317Z,1.02
2023-05-04T22:06:24.529Z,1.10
2023-05-04T22:08:27.396Z,1.10
2023-05-04T22:10:29.118Z,1.35
2023-05-04T22:12:30.726Z,1.40
2023-05-04T22:14:32.373Z,1.27
2023-05-04T22:16:34.018Z,1.23
2023-05-04T22:18:35.541Z,1.30
2023-05-04T22:20:37.895Z,1.17
2023-05-04T22:22:39.369Z,1.38
2023-05-04T22:24:41.042Z,1.45
2023-05-04T22:26:42.792Z,1.33
2023-05-04T22:28:44.325Z,1.50
2023-05-04T22:30:45.939Z,1.10
2023-05-04T22:32:47.931Z,1.15
2023-05-04T22:34:49.522Z,1.00
2023-05-04T22:36:51.035Z,1.17
2023-05-04T22:38:52.595Z,1.17
2023-05-04T22:40:54.214Z,1.08
2023-05-04T22:42:55.732Z,1.60
2023-05-04T22:44:57.511Z,1.20
2023-05-04T22:46:59.021Z,1.17
2023-05-04T22:49:00.563Z,1.38
2023-05-04T22:51:02.016Z,1.30
2023-05-04T22:53:03.944Z,1.17
2023-05-04T22:55:07.788Z,1.17
2023-05-04T22:57:09.824Z,1.17
2023-05-04T22:59:11.336Z,1.15
2023-05-04T23:01:13.014Z,1.70
2023-05-04T23:03:14.768Z,1.20
2023-05-04T23:05:16.449Z,1.10
2023-05-04T23:07:17.893Z,1.40
2023-05-04T23:09:19.345Z,1.40
2023-05-04T23:11:23.861Z,1.40
2023-05-04T23:13:25.383Z,1.23
2023-05-04T23:15:27.077Z,1.23
2023-05-04T23:17:29.026Z,1.58
2023-05-04T23:19:31.924Z,1.42
2023-05-04T23:21:33.500Z,1.50
2023-05-04T23:23:35.405Z,1.52
2023-05-04T23:25:36.906Z,1.23
2023-05-04T23:27:40.992Z,1.40
2023-05-04T23:29:42.512Z,1.20
2023-05-04T23:31:44.179Z,1.40
2023-05-04T23:33:45.906Z,1.40
2023-05-04T23:35:47.368Z,1.35
2023-05-04T23:37:48.896Z,1.38
2023-05-04T23:39:50.655Z,1.40
2023-05-04T23:41:52.154Z,1.50
2023-05-04T23:43:53.733Z,1.00
2023-05-04T23:46:08.068Z,1.63
2023-05-04T23:48:09.915Z,1.75
2023-05-04T23:50:11.741Z,1.60
2023-05-04T23:52:13.288Z,1.40
2023-05-04T23:54:15.165Z,1.17
2023-05-04T23:56:17.416Z,1.50
2023-05-04T23:58:18.844Z,1.50
